createdAt,value
2018-01-01T00:01:02.021Z,98785.02
2018-01-01T00:03:29.502Z,98779.77
2018-01-01T00:05:56.971Z,98776.38
2018-01-01T00:08:24.498Z,98773.66
2018-01-01T00:10:52.017Z,98773.14
2018-01-01T00:13:19.484Z,98775.87
2018-01-01T00:15:46.986Z,98775.47
2018-01-01T00:18:14.492Z,98781.88
2018-01-01T00:20:41.953Z,98779.13
2018-01-01T00:23:09.493Z,98765.60
2018-01-01T00:25:36.995Z,98768.42
2018-01-01T00:28:04.491Z,98762.58
2018-01-01T00:30:31.956Z,98771.88
2018-01-01T00:33:00.103Z,98762.64
2018-01-01T00:35:27.565Z,98771.08
2018-01-01T00:37:55.048Z,98755.30
2018-01-01T00:40:22.512Z,98753.36
2018-01-01T00:42:49.961Z,98762.88
2018-01-01T00:45:17.402Z,98762.50
2018-01-01T00:47:44.912Z,98763.11
2018-01-01T00:50:12.345Z,98756.30
2018-01-01T00:52:40.415Z,98764.86
2018-01-01T00:55:07.944Z,98757.53
2018-01-01T00:57:35.407Z,98762.38
2018-01-01T01:00:02.988Z,98759.47
2018-01-01T01:02:30.451Z,98763.52
2018-01-01T01:04:57.919Z,98770.33
2018-01-01T01:07:25.367Z,98777.14
2018-01-01T01:09:52.809Z,98773.72
2018-01-01T01:12:20.281Z,98783.88
2018-01-01T01:14:47.728Z,98781.78
2018-01-01T01:17:15.193Z,98788.36
2018-01-01T01:19:42.669Z,98786.23
2018-01-01T01:22:10.160Z,98797.52
2018-01-01T01:24:37.645Z,98795.47
2018-01-01T01:27:05.089Z,98801.35
2018-01-01T01:29:32.584Z,98805.98
2018-01-01T01:32:00.030Z,98803.24
2018-01-01T01:34:27.483Z,98798.70
2018-01-01T01:36:54.962Z,98803.25
2018-01-01T01:39:22.403Z,98796.14
2018-01-01T01:41:49.832Z,98806.77
2018-01-01T01:44:17.301Z,98807.66
2018-01-01T01:46:44.733Z,98810.31
2018-01-01T01:49:12.180Z,98816.56
2018-01-01T01:51:39.608Z,98819.51
2018-01-01T01:54:07.066Z,98812.39
2018-01-01T01:56:34.512Z,98819.61
2018-01-01T01:59:01.978Z,98820.78
2018-01-01T02:01:29.419Z,98822.63
2018-01-01T02:03:56.896Z,98823.95
2018-01-01T02:06:24.353Z,98832.16
2018-01-01T02:08:51.815Z,98844.66
2018-01-01T02:11:19.267Z,98847.18
2018-01-01T02:13:46.708Z,98843.03
2018-01-01T02:16:14.159Z,98845.89
2018-01-01T02:18:41.700Z,98845.34
2018-01-01T02:21:09.121Z,98845.20
2018-01-01T02:23:36.723Z,98853.01
2018-01-01T02:26:04.147Z,98846.44
2018-01-01T02:28:31.610Z,98841.61
2018-01-01T02:30:59.057Z,98843.23
2018-01-01T02:33:26.517Z,98848.94
2018-01-01T02:35:53.966Z,98846.38
2018-01-01T02:38:21.454Z,98845.52
2018-01-01T02:40:48.897Z,98847.78
2018-01-01T02:43:16.361Z,98845.36
2018-01-01T02:45:43.787Z,98852.77
2018-01-01T02:48:11.240Z,98860.05
2018-01-01T02:50:38.700Z,98854.58
2018-01-01T02:53:06.858Z,98852.45
2018-01-01T02:55:34.286Z,98864.64
2018-01-01T02:58:02.219Z,98861.98
2018-01-01T03:00:29.647Z,98859.49
2018-01-01T03:02:57.102Z,98858.47
2018-01-01T03:05:24.542Z,98856.27
2018-01-01T03:07:52.032Z,98855.18
2018-01-01T03:10:19.449Z,98853.00
2018-01-01T03:12:46.890Z,98852.20
2018-01-01T03:15:14.381Z,98856.98
2018-01-01T03:17:41.808Z,98860.81
2018-01-01T03:20:10.132Z,98873.63
2018-01-01T03:22:37.564Z,98867.98
2018-01-01T03:25:04.983Z,98873.93
2018-01-01T03:27:32.481Z,98876.52
2018-01-01T03:29:59.900Z,98884.98
2018-01-01T03:32:27.374Z,98886.68
2018-01-01T03:34:54.860Z,98894.13
2018-01-01T03:37:22.321Z,98895.98
2018-01-01T03:39:49.787Z,98908.19
2018-01-01T03:42:17.228Z,98902.61
2018-01-01T03:44:44.675Z,98911.33
2018-01-01T03:47:12.144Z,98913.34
2018-01-01T03:49:39.588Z,98887.98
2018-01-01T03:52:07.046Z,98887.08
2018-01-01T03:54:34.484Z,98890.23
2018-01-01T03:57:01.946Z,98883.98
2018-01-01T03:59:29.396Z,98884.31
2018-01-01T04:01:56.876Z,98873.97
2018-01-01T04:04:24.328Z,98878.52
2018-01-01T04:06:51.763Z,98877.35
2018-01-01T04:09:19.223Z,98887.67
2018-01-01T04:11:46.739Z,98883.84
2018-01-01T04:14:14.166Z,98889.40
2018-01-01T04:16:41.629Z,98889.23
2018-01-01T04:19:09.065Z,98900.80
2018-01-01T04:21:36.503Z,98897.91
2018-01-01T04:24:03.936Z,98894.72
2018-01-01T04:26:31.359Z,98899.02
2018-01-01T04:28:58.785Z,98908.70
2018-01-01T04:31:26.218Z,98899.06
2018-01-01T04:33:53.703Z,98898.70
2018-01-01T04:36:21.136Z,98901.96
2018-01-01T04:38:48.585Z,98897.38
2018-01-01T04:41:16.046Z,98903.22
2018-01-01T04:43:43.533Z,98902.88
2018-01-01T04:46:10.972Z,98902.88
2018-01-01T04:48:38.403Z,98906.17
2018-01-01T04:51:05.844Z,98890.83
2018-01-01T04:53:33.283Z,98898.10
2018-01-01T04:56:00.711Z,98913.50
2018-01-01T04:58:28.158Z,98924.98
2018-01-01T05:00:55.598Z,98945.39
2018-01-01T05:03:23.031Z,98935.58
2018-01-01T05:05:50.508Z,98936.45
2018-01-01T05:08:17.948Z,98952.97
2018-01-01T05:10:45.420Z,98964.59
2018-01-01T05:13:12.854Z,98980.07
2018-01-01T05:15:41.233Z,98972.72
2018-01-01T05:18:08.668Z,98976.22
2018-01-01T05:20:36.076Z,98981.08
2018-01-01T05:23:03.527Z,98968.83
2018-01-01T05:25:31.015Z,98977.77
2018-01-01T05:27:59.452Z,98967.00
2018-01-01T05:30:26.915Z,98973.61
2018-01-01T05:32:54.331Z,98977.58
2018-01-01T05:35:21.756Z,98982.30
2018-01-01T05:37:49.188Z,98978.88
2018-01-01T05:40:16.649Z,98968.19
2018-01-01T05:42:44.087Z,98977.20
2018-01-01T05:45:11.537Z,98981.96
2018-01-01T05:47:38.960Z,98992.48
2018-01-01T05:50:06.401Z,98997.61
2018-01-01T05:52:33.820Z,99001.13
2018-01-01T05:55:01.236Z,98999.00
2018-01-01T05:57:33.765Z,99005.02
2018-01-01T06:00:01.229Z,98991.89
2018-01-01T06:02:29.513Z,98986.66
2018-01-01T06:04:56.943Z,98978.45
2018-01-01T06:07:24.393Z,98990.78
2018-01-01T06:09:51.828Z,98993.03
2018-01-01T06:12:19.234Z,98999.27
2018-01-01T06:14:46.669Z,99004.56
2018-01-01T06:17:14.144Z,98993.96
2018-01-01T06:19:41.596Z,99000.50
2018-01-01T06:22:09.028Z,98998.25
2018-01-01T06:24:36.477Z,99004.32
2018-01-01T06:27:03.938Z,99006.27
2018-01-01T06:29:31.421Z,99014.84
2018-01-01T06:31:58.859Z,99012.41
2018-01-01T06:34:26.304Z,99018.14
2018-01-01T06:36:53.728Z,99017.84
2018-01-01T06:39:21.169Z,99025.17
2018-01-01T06:41:50.385Z,99023.09
2018-01-01T06:44:18.608Z,99030.36
2018-01-01T06:46:46.034Z,99036.09
2018-01-01T06:49:13.523Z,99034.86
2018-01-01T06:51:40.992Z,99045.09
2018-01-01T06:54:08.451Z,99051.14
2018-01-01T06:56:35.878Z,99047.16
2018-01-01T06:59:03.431Z,99051.56
2018-01-01T07:01:30.876Z,99061.88
2018-01-01T07:03:58.314Z,99056.66
2018-01-01T07:06:25.776Z,99056.20
2018-01-01T07:08:54.991Z,99057.16
2018-01-01T07:11:22.400Z,99057.30
2018-01-01T07:13:49.878Z,99065.11
2018-01-01T07:16:17.324Z,99070.73
2018-01-01T07:18:44.763Z,99076.03
2018-01-01T07:21:12.187Z,99062.00
2018-01-01T07:23:39.636Z,99083.91
2018-01-01T07:26:07.082Z,99073.14
2018-01-01T07:28:34.561Z,99096.19
2018-01-01T07:31:02.882Z,99115.69
2018-01-01T07:33:30.363Z,99107.95
2018-01-01T07:35:57.786Z,99124.95
2018-01-01T07:38:25.394Z,99107.92
2018-01-01T07:40:52.814Z,99108.17
2018-01-01T07:43:20.465Z,99112.19
2018-01-01T07:45:47.964Z,99113.33
2018-01-01T07:48:15.414Z,99117.95
2018-01-01T07:50:42.951Z,99130.08
2018-01-01T07:53:10.408Z,99121.59
2018-01-01T07:55:39.686Z,99129.62
2018-01-01T07:58:07.930Z,99122.61
2018-01-01T08:00:35.434Z,99128.38
2018-01-01T08:03:03.089Z,99131.13
2018-01-01T08:05:30.608Z,99138.34
2018-01-01T08:07:58.127Z,99134.51
2018-01-01T08:10:25.908Z,99134.91
2018-01-01T08:12:53.407Z,99129.82
2018-01-01T08:15:21.788Z,99133.34
2018-01-01T08:17:49.269Z,99137.22
2018-01-01T08:20:16.757Z,99130.69
2018-01-01T08:22:44.361Z,99136.80
2018-01-01T08:25:12.646Z,99119.22
2018-01-01T08:27:40.125Z,99115.23
2018-01-01T08:30:07.564Z,99123.34
2018-01-01T08:32:35.050Z,99125.56
2018-01-01T08:35:02.889Z,99128.92
2018-01-01T08:37:30.350Z,99126.42
2018-01-01T08:39:57.784Z,99120.41
2018-01-01T08:42:25.295Z,99120.81
2018-01-01T08:44:52.705Z,99127.53
2018-01-01T08:47:20.158Z,99128.95
2018-01-01T08:49:47.600Z,99138.12
2018-01-01T08:52:15.041Z,99145.86
2018-01-01T08:54:42.546Z,99150.53
2018-01-01T08:57:10.008Z,99154.30
2018-01-01T08:59:37.446Z,99173.45
2018-01-01T09:02:04.895Z,99161.24
2018-01-01T09:04:32.374Z,99168.34
2018-01-01T09:07:04.792Z,99163.74
2018-01-01T09:09:32.294Z,99177.78
2018-01-01T09:11:59.736Z,99176.77
2018-01-01T09:14:27.195Z,99177.87
2018-01-01T09:16:54.630Z,99182.72
2018-01-01T09:19:22.075Z,99180.63
2018-01-01T09:21:49.521Z,99184.57
2018-01-01T09:24:16.939Z,99198.88
2018-01-01T09:26:44.371Z,99189.05
2018-01-01T09:29:11.801Z,99187.72
2018-01-01T09:31:39.278Z,99190.98
2018-01-01T09:34:06.848Z,99195.52
2018-01-01T09:36:34.272Z,99196.84
2018-01-01T09:39:01.740Z,99216.86
2018-01-01T09:41:29.326Z,99208.75
2018-01-01T09:43:56.829Z,99203.53
2018-01-01T09:46:24.255Z,99223.71
2018-01-01T09:48:51.692Z,99220.69
2018-01-01T09:51:19.142Z,99220.38
2018-01-01T09:53:46.600Z,99211.30
2018-01-01T09:56:14.079Z,99198.13
2018-01-01T09:58:41.637Z,99215.66
2018-01-01T10:01:09.071Z,99210.41
2018-01-01T10:03:36.556Z,99210.16
2018-01-01T10:06:04.070Z,99213.92
2018-01-01T10:08:31.563Z,99217.07
2018-01-01T10:10:59.010Z,99225.19
2018-01-01T10:13:26.574Z,99220.94
2018-01-01T10:15:54.090Z,99220.45
2018-01-01T10:18:21.553Z,99230.81
2018-01-01T10:20:48.975Z,99217.45
2018-01-01T10:23:16.448Z,99212.77
2018-01-01T10:25:43.888Z,99208.73
2018-01-01T10:28:11.371Z,99200.49
2018-01-01T10:30:38.811Z,99200.80
2018-01-01T10:33:06.267Z,99208.18
2018-01-01T10:35:33.716Z,99209.91
2018-01-01T10:38:03.798Z,99219.81
2018-01-01T10:40:31.344Z,99210.71
2018-01-01T10:42:58.905Z,99209.63
2018-01-01T10:45:26.684Z,99202.53
2018-01-01T10:47:54.813Z,99198.40
2018-01-01T10:50:22.387Z,99212.07
2018-01-01T10:52:49.863Z,99217.88
2018-01-01T10:55:17.905Z,99207.84
2018-01-01T10:57:45.366Z,99213.52
2018-01-01T11:00:13.605Z,99195.18
2018-01-01T11:02:41.156Z,99200.05
2018-01-01T11:05:08.827Z,99213.58
2018-01-01T11:07:41.256Z,99220.06
2018-01-01T11:10:08.736Z,99218.73
2018-01-01T11:12:36.285Z,99211.11
2018-01-01T11:15:03.854Z,99206.70
2018-01-01T11:17:31.397Z,99219.11
2018-01-01T11:19:59.123Z,99223.64
2018-01-01T11:22:26.674Z,99235.66
2018-01-01T11:24:54.185Z,99234.91
2018-01-01T11:27:21.884Z,99239.05
2018-01-01T11:29:49.548Z,99225.84
2018-01-01T11:32:17.175Z,99230.25
2018-01-01T11:34:44.797Z,99223.83
2018-01-01T11:37:12.302Z,99225.84
2018-01-01T11:39:39.849Z,99224.63
2018-01-01T11:42:07.308Z,99220.58
2018-01-01T11:44:34.815Z,99207.11
2018-01-01T11:47:02.289Z,99212.25
2018-01-01T11:49:29.776Z,99219.69
2018-01-01T11:51:57.302Z,99216.88
2018-01-01T11:54:24.741Z,99210.86
2018-01-01T11:56:52.220Z,99214.57
2018-01-01T11:59:19.659Z,99223.25
2018-01-01T12:01:47.119Z,99214.41
2018-01-01T12:04:14.611Z,99197.77
2018-01-01T12:06:47.060Z,99208.92
2018-01-01T12:09:14.566Z,99210.88
2018-01-01T12:11:42.070Z,99214.77
2018-01-01T12:14:09.496Z,99207.14
2018-01-01T12:16:37.230Z,99199.83
2018-01-01T12:19:04.761Z,99196.96
2018-01-01T12:21:32.480Z,99197.77
2018-01-01T12:24:00.048Z,99189.26
2018-01-01T12:26:27.569Z,99183.55
2018-01-01T12:28:55.058Z,99179.39
2018-01-01T12:31:22.512Z,99197.81
2018-01-01T12:33:50.058Z,99192.31
2018-01-01T12:36:17.508Z,99187.38
2018-01-01T12:38:45.696Z,99173.69
2018-01-01T12:41:13.240Z,99177.73
2018-01-01T12:43:40.717Z,99180.48
2018-01-01T12:46:08.317Z,99158.14
2018-01-01T12:48:35.958Z,99168.73
2018-01-01T12:51:03.461Z,99157.06
2018-01-01T12:53:30.932Z,99163.91
2018-01-01T12:55:58.361Z,99153.24
2018-01-01T12:58:25.814Z,99152.89
2018-01-01T13:00:53.303Z,99157.41
2018-01-01T13:03:20.751Z,99148.06
2018-01-01T13:05:48.212Z,99159.69
2018-01-01T13:08:20.657Z,99157.38
2018-01-01T13:10:48.102Z,99140.69
2018-01-01T13:13:16.810Z,99161.55
2018-01-01T13:15:44.244Z,99156.23
2018-01-01T13:18:11.773Z,99161.06
2018-01-01T13:20:39.277Z,99166.89
2018-01-01T13:23:07.624Z,99162.57
2018-01-01T13:25:35.079Z,99168.87
2018-01-01T13:28:02.529Z,99144.27
2018-01-01T13:30:29.968Z,99144.58
2018-01-01T13:32:57.486Z,99148.55
2018-01-01T13:35:24.921Z,99152.76
2018-01-01T13:37:52.432Z,99153.96
2018-01-01T13:40:20.090Z,99152.58
2018-01-01T13:42:47.549Z,99152.84
2018-01-01T13:45:15.029Z,99144.24
2018-01-01T13:47:42.522Z,99127.70
2018-01-01T13:50:10.088Z,99122.25
2018-01-01T13:52:37.556Z,99119.96
2018-01-01T13:55:05.006Z,99104.84
2018-01-01T13:57:32.474Z,99108.52
2018-01-01T14:00:00.035Z,99114.47
2018-01-01T14:02:27.472Z,99109.63
2018-01-01T14:04:55.240Z,99115.17
2018-01-01T14:07:27.767Z,99116.91
2018-01-01T14:09:55.252Z,99113.76
2018-01-01T14:12:22.745Z,99111.44
2018-01-01T14:14:50.225Z,99115.42
2018-01-01T14:17:17.713Z,99105.25
2018-01-01T14:19:45.155Z,99104.78
2018-01-01T14:22:12.625Z,99110.67
2018-01-01T14:24:40.144Z,99109.55
2018-01-01T14:27:07.601Z,99101.72
2018-01-01T14:29:35.054Z,99096.27
2018-01-01T14:32:02.569Z,99106.91
2018-01-01T14:34:30.018Z,99113.64
2018-01-01T14:36:57.527Z,99109.26
2018-01-01T14:39:24.999Z,99113.80
2018-01-01T14:41:52.460Z,99123.03
2018-01-01T14:44:19.976Z,99120.66
2018-01-01T14:46:47.390Z,99120.88
2018-01-01T14:49:14.881Z,99117.66
2018-01-01T14:51:42.319Z,99120.46
2018-01-01T14:54:09.754Z,99120.61
2018-01-01T14:56:37.275Z,99122.15
2018-01-01T14:59:04.749Z,99126.43
2018-01-01T15:01:32.191Z,99116.59
2018-01-01T15:03:59.661Z,99115.12
2018-01-01T15:06:27.181Z,99120.27
2018-01-01T15:08:54.608Z,99124.30
2018-01-01T15:11:22.062Z,99123.19
2018-01-01T15:13:49.502Z,99115.70
2018-01-01T15:16:17.289Z,99117.45
2018-01-01T15:18:44.725Z,99119.80
2018-01-01T15:21:12.193Z,99118.69
2018-01-01T15:23:39.673Z,99111.38
2018-01-01T15:26:07.167Z,99117.78
2018-01-01T15:28:34.652Z,99114.88
2018-01-01T15:31:02.139Z,99118.93
2018-01-01T15:33:29.681Z,99117.66
2018-01-01T15:35:57.361Z,99119.04
2018-01-01T15:38:24.917Z,99116.64
2018-01-01T15:40:52.371Z,99110.31
2018-01-01T15:43:19.828Z,99113.73
2018-01-01T15:45:47.315Z,99116.05
2018-01-01T15:48:14.784Z,99123.05
2018-01-01T15:50:42.242Z,99110.64
2018-01-01T15:53:09.672Z,99111.75
2018-01-01T15:55:37.219Z,99106.61
2018-01-01T15:58:04.683Z,99107.13
2018-01-01T16:00:32.191Z,99094.97
2018-01-01T16:02:59.663Z,99097.83
2018-01-01T16:05:27.191Z,99095.75
2018-01-01T16:07:54.622Z,99095.29
2018-01-01T16:10:22.146Z,99084.89
2018-01-01T16:12:49.584Z,99086.95
2018-01-01T16:15:17.056Z,99076.25
2018-01-01T16:17:44.524Z,99076.26
2018-01-01T16:20:12.025Z,99075.14
2018-01-01T16:22:39.591Z,99072.82
2018-01-01T16:25:07.983Z,99079.08
2018-01-01T16:27:35.484Z,99077.50
2018-01-01T16:30:03.208Z,99080.82
2018-01-01T16:32:30.741Z,99071.75
2018-01-01T16:34:58.238Z,99067.38
2018-01-01T16:37:30.642Z,99078.27
2018-01-01T16:39:58.087Z,99076.14
2018-01-01T16:42:25.562Z,99070.44
2018-01-01T16:44:53.256Z,99071.45
2018-01-01T16:47:20.780Z,99063.81
2018-01-01T16:49:48.298Z,99064.12
2018-01-01T16:52:16.031Z,99056.84
2018-01-01T16:54:43.463Z,99062.04
2018-01-01T16:57:10.934Z,99064.74
2018-01-01T16:59:38.397Z,99055.87
2018-01-01T17:02:05.854Z,99046.56
2018-01-01T17:04:33.328Z,99046.06
2018-01-01T17:07:00.878Z,99037.30
2018-01-01T17:09:28.312Z,99032.98
2018-01-01T17:11:55.994Z,99029.47
2018-01-01T17:14:23.443Z,99025.45
2018-01-01T17:16:50.902Z,99024.67
2018-01-01T17:19:18.401Z,99009.72
2018-01-01T17:21:45.849Z,99003.66
2018-01-01T17:24:13.314Z,99006.00
2018-01-01T17:26:40.762Z,99004.42
2018-01-01T17:29:08.201Z,99001.26
2018-01-01T17:31:35.666Z,98999.08
2018-01-01T17:34:03.276Z,98998.83
2018-01-01T17:36:30.731Z,98992.72
2018-01-01T17:38:58.266Z,98994.55
2018-01-01T17:41:26.009Z,98992.47
2018-01-01T17:43:53.472Z,98987.68
2018-01-01T17:46:21.274Z,99000.55
2018-01-01T17:48:53.681Z,98998.98
2018-01-01T17:51:21.140Z,99011.20
2018-01-01T17:53:48.625Z,99003.06
2018-01-01T17:56:16.533Z,99004.73
2018-01-01T17:58:44.015Z,99000.91
2018-01-01T18:01:11.444Z,98989.56
2018-01-01T18:03:39.041Z,98987.44
2018-01-01T18:06:06.500Z,98985.84
2018-01-01T18:08:33.980Z,98985.09
2018-01-01T18:11:01.440Z,98990.52
2018-01-01T18:13:28.926Z,98985.44
2018-01-01T18:15:56.374Z,98996.69
2018-01-01T18:18:23.794Z,98999.19
2018-01-01T18:20:51.251Z,98999.34
2018-01-01T18:23:18.691Z,98997.20
2018-01-01T18:25:46.165Z,99002.74
2018-01-01T18:28:13.596Z,98991.75
2018-01-01T18:30:41.050Z,98990.89
2018-01-01T18:33:08.559Z,98986.10
2018-01-01T18:35:36.047Z,98988.08
2018-01-01T18:38:03.484Z,98985.75
2018-01-01T18:40:31.028Z,98981.63
2018-01-01T18:42:58.532Z,98984.12
2018-01-01T18:45:25.991Z,98981.88
2018-01-01T18:47:53.459Z,98989.81
2018-01-01T18:50:20.919Z,98988.49
2018-01-01T18:52:48.476Z,98972.61
2018-01-01T18:55:15.958Z,98979.34
2018-01-01T18:57:43.455Z,98966.50
2018-01-01T19:00:10.902Z,98961.52
2018-01-01T19:02:38.405Z,98966.81
2018-01-01T19:05:05.859Z,98968.08
2018-01-01T19:07:33.342Z,98967.78
2018-01-01T19:10:00.833Z,98967.28
2018-01-01T19:12:28.608Z,98959.34
2018-01-01T19:14:56.082Z,98952.92
2018-01-01T19:17:25.793Z,98950.34
2018-01-01T19:19:54.582Z,98943.20
2018-01-01T19:22:23.161Z,98941.87
2018-01-01T19:24:50.675Z,98939.84
2018-01-01T19:27:18.375Z,98939.13
2018-01-01T19:29:45.869Z,98939.55
2018-01-01T19:32:13.430Z,98933.75
2018-01-01T19:34:40.863Z,98933.91
2018-01-01T19:37:11.227Z,98928.46
2018-01-01T19:39:38.727Z,98932.13
2018-01-01T19:42:06.211Z,98925.20
2018-01-01T19:44:33.833Z,98929.08
2018-01-01T19:47:01.314Z,98921.94
2018-01-01T19:49:28.745Z,98923.36
2018-01-01T19:51:56.265Z,98917.92
2018-01-01T19:54:23.745Z,98922.14
2018-01-01T19:56:51.207Z,98915.27
2018-01-01T19:59:18.688Z,98912.08
2018-01-01T20:01:46.381Z,98911.52
2018-01-01T20:04:13.906Z,98907.25
2018-01-01T20:06:41.337Z,98903.09
2018-01-01T20:09:09.106Z,98906.59
2018-01-01T20:11:36.582Z,98893.36
2018-01-01T20:14:04.165Z,98899.97
2018-01-01T20:16:31.624Z,98909.95
2018-01-01T20:18:59.087Z,98910.45
2018-01-01T20:21:26.691Z,98916.47
2018-01-01T20:23:54.122Z,98912.30
2018-01-01T20:26:21.615Z,98915.50
2018-01-01T20:28:49.095Z,98915.03
2018-01-01T20:31:16.533Z,98913.72
2018-01-01T20:33:44.048Z,98934.31
2018-01-01T20:36:11.512Z,98932.17
2018-01-01T20:38:38.966Z,98926.73
2018-01-01T20:41:06.438Z,98931.77
2018-01-01T20:43:33.931Z,98937.66
2018-01-01T20:46:01.420Z,98929.18
2018-01-01T20:48:28.995Z,98918.95
2018-01-01T20:50:56.612Z,98922.81
2018-01-01T20:53:24.071Z,98913.19
2018-01-01T20:55:51.544Z,98911.43
2018-01-01T20:58:19.029Z,98913.31
2018-01-01T21:00:46.530Z,98913.66
2018-01-01T21:03:13.982Z,98910.47
2018-01-01T21:05:41.453Z,98902.34
2018-01-01T21:08:08.941Z,98901.37
2018-01-01T21:10:36.398Z,98903.71
2018-01-01T21:13:03.864Z,98903.30
2018-01-01T21:15:32.193Z,98903.14
2018-01-01T21:17:59.688Z,98902.07
2018-01-01T21:20:27.230Z,98893.98
2018-01-01T21:22:54.875Z,98900.90
2018-01-01T21:25:22.365Z,98900.30
2018-01-01T21:27:49.863Z,98894.96
2018-01-01T21:30:17.345Z,98898.66
2018-01-01T21:32:44.813Z,98901.05
2018-01-01T21:35:12.503Z,98893.23
2018-01-01T21:37:39.985Z,98893.34
2018-01-01T21:40:07.425Z,98889.64
2018-01-01T21:42:35.142Z,98886.02
2018-01-01T21:45:02.587Z,98882.41
2018-01-01T21:47:30.095Z,98883.28
2018-01-01T21:49:57.561Z,98869.55
2018-01-01T21:52:25.033Z,98881.05
2018-01-01T21:54:52.817Z,98860.50
2018-01-01T21:57:20.241Z,98861.81
2018-01-01T21:59:47.737Z,98858.55
2018-01-01T22:02:15.209Z,98863.61
2018-01-01T22:04:42.648Z,98864.41
2018-01-01T22:07:10.126Z,98861.27
2018-01-01T22:09:37.548Z,98859.13
2018-01-01T22:12:05.013Z,98854.96
2018-01-01T22:14:32.468Z,98857.75
2018-01-01T22:16:59.912Z,98846.93
2018-01-01T22:19:27.369Z,98844.96
2018-01-01T22:21:54.856Z,98849.08
2018-01-01T22:24:22.326Z,98845.36
2018-01-01T22:26:49.751Z,98838.30
2018-01-01T22:29:17.296Z,98833.12
2018-01-01T22:31:44.728Z,98828.33
2018-01-01T22:34:12.163Z,98823.56
2018-01-01T22:36:39.639Z,98814.56
2018-01-01T22:39:07.155Z,98811.13
2018-01-01T22:41:34.634Z,98815.36
2018-01-01T22:44:02.081Z,98813.05
2018-01-01T22:46:29.604Z,98815.69
2018-01-01T22:49:02.020Z,98816.83
2018-01-01T22:51:29.621Z,98813.39
2018-01-01T22:53:57.187Z,98809.38
2018-01-01T22:56:24.585Z,98813.03
2018-01-01T22:58:52.021Z,98807.04
2018-01-01T23:01:19.508Z,98805.31
2018-01-01T23:03:46.969Z,98803.48
2018-01-01T23:06:14.461Z,98801.45
2018-01-01T23:08:41.925Z,98800.06
2018-01-01T23:11:09.404Z,98797.89
2018-01-01T23:13:36.910Z,98795.91
2018-01-01T23:16:04.374Z,98794.03
2018-01-01T23:18:36.851Z,98790.22
2018-01-01T23:21:05.441Z,98788.18
2018-01-01T23:23:33.169Z,98783.00
2018-01-01T23:26:00.832Z,98779.86
2018-01-01T23:28:28.293Z,98779.23
2018-01-01T23:30:55.770Z,98779.70
2018-01-01T23:33:23.260Z,98784.42
2018-01-01T23:35:50.718Z,98780.31
2018-01-01T23:38:18.215Z,98769.14
2018-01-01T23:40:45.681Z,98776.09
2018-01-01T23:43:13.144Z,98772.69
2018-01-01T23:45:40.855Z,98766.80
2018-01-01T23:48:08.662Z,98767.25
2018-01-01T23:50:36.103Z,98771.05
2018-01-01T23:53:03.571Z,98758.73
2018-01-01T23:55:30.994Z,98761.68
2018-01-01T23:57:58.546Z,98762.84
